Time;durP1;ratioP1;P1;durP2;ratioP2;P2;SDS_P1;SDS_P2;PMS_P1;PMS_P2;Temp;Humidity;BMP_temperature;BMP_pressure;BME280_temperature;BME280_humidity;BME280_pressure;Samples;Min_cycle;Max_cycle;Signal;HPM_P1;HPM_P2
2023/10/12 00:00:24;;;;;;;14.40;7.03;;;;;;;;;;763655;178;921109;-66
2023/10/12 00:02:52;;;;;;;15.60;6.97;;;;;;;;;;773754;180;918896;-67
2023/10/12 00:05:18;;;;;;;15.27;7.17;;;;;;;;;;776633;178;918777;-69
2023/10/12 00:07:45;;;;;;;16.37;8.00;;;;;;;;;;768012;179;821540;-67
2023/10/12 00:10:20;;;;;;;16.60;7.80;;;;;;;;;;769931;180;919584;-67
2023/10/12 00:12:35;;;;;;;14.93;7.00;;;;;;;;;;770669;182;878570;-68
2023/10/12 00:15:08;;;;;;;12.90;7.57;;;;;;;;;;767023;182;915391;-66
2023/10/12 00:17:27;;;;;;;12.20;6.37;;;;;;;;;;769257;180;926567;-68
2023/10/12 00:19:53;;;;;;;9.45;6.60;;;;;;;;;;773980;180;915614;-66
2023/10/12 00:22:19;;;;;;;11.90;7.03;;;;;;;;;;761832;184;919094;-66
2023/10/12 00:24:45;;;;;;;18.30;7.73;;;;;;;;;;755318;183;915943;-68
2023/10/12 00:27:12;;;;;;;14.50;7.67;;;;;;;;;;768400;181;925355;-66
2023/10/12 00:29:39;;;;;;;9.70;6.67;;;;;;;;;;774838;179;819906;-68
2023/10/12 00:32:06;;;;;;;10.23;6.30;;;;;;;;;;771106;181;917980;-67
2023/10/12 00:34:34;;;;;;;11.87;6.77;;;;;;;;;;766626;178;918157;-68
2023/10/12 00:36:57;;;;;;;16.10;6.90;;;;;;;;;;779489;176;817824;-66
2023/10/12 00:39:27;;;;;;;12.00;6.80;;;;;;;;;;767377;181;915415;-66
2023/10/12 00:41:46;;;;;;;11.40;6.27;;;;;;;;;;769330;180;939065;-69
2023/10/12 00:44:12;;;;;;;9.00;5.93;;;;;;;;;;756120;186;817131;-69
2023/10/12 00:46:58;;;;;;;10.70;6.30;;;;;;;;;;777908;179;916248;-69
2023/10/12 00:51:39;;;;;;;11.53;6.00;;;;;;;;;;768525;180;891166;-69
2023/10/12 00:54:05;;;;;;;10.07;6.20;;;;;;;;;;777415;177;909089;-68
2023/10/12 00:56:31;;;;;;;12.93;6.27;;;;;;;;;;765386;181;919834;-66
2023/10/12 00:58:56;;;;;;;16.93;6.10;;;;;;;;;;749230;185;919971;-67
2023/10/12 01:01:23;;;;;;;9.13;5.80;;;;;;;;;;753994;182;919503;-68
2023/10/12 01:03:49;;;;;;;13.23;6.00;;;;;;;;;;769070;181;916265;-66
2023/10/12 01:06:25;;;;;;;12.70;5.70;;;;;;;;;;765594;181;919811;-68
2023/10/12 01:08:43;;;;;;;12.37;5.90;;;;;;;;;;765937;180;915670;-65
2023/10/12 01:11:09;;;;;;;11.33;5.80;;;;;;;;;;763130;181;922379;-69
2023/10/12 01:13:35;;;;;;;8.57;5.10;;;;;;;;;;767915;179;911232;-66
2023/10/12 01:16:08;;;;;;;15.25;5.85;;;;;;;;;;765097;181;926398;-66
2023/10/12 01:18:28;;;;;;;11.50;5.93;;;;;;;;;;771023;181;919251;-69
2023/10/12 01:20:53;;;;;;;9.60;5.03;;;;;;;;;;767485;181;819157;-69
2023/10/12 01:23:19;;;;;;;12.20;6.07;;;;;;;;;;771062;178;918529;-68
2023/10/12 01:25:48;;;;;;;10.20;5.97;;;;;;;;;;769274;182;920518;-68
2023/10/12 01:28:12;;;;;;;12.30;6.63;;;;;;;;;;772352;181;815626;-68
2023/10/12 01:30:39;;;;;;;15.03;6.03;;;;;;;;;;770228;180;918959;-66
2023/10/12 01:33:04;;;;;;;12.00;6.60;;;;;;;;;;770079;180;919198;-65
2023/10/12 01:35:33;;;;;;;11.00;5.80;;;;;;;;;;775712;181;816261;-69
2023/10/12 01:38:01;;;;;;;10.17;5.93;;;;;;;;;;770517;180;816029;-66
2023/10/12 01:40:26;;;;;;;12.30;6.40;;;;;;;;;;754131;183;919086;-67
2023/10/12 01:42:56;;;;;;;9.67;5.77;;;;;;;;;;758064;182;841699;-65
2023/10/12 01:45:18;;;;;;;9.33;5.47;;;;;;;;;;762099;183;918046;-65
2023/10/12 01:47:45;;;;;;;11.90;5.90;;;;;;;;;;765205;181;919568;-68
2023/10/12 01:50:11;;;;;;;7.37;5.43;;;;;;;;;;766398;178;919514;-66
2023/10/12 01:52:37;;;;;;;10.07;6.10;;;;;;;;;;759687;186;919530;-68
2023/10/12 01:55:16;;;;;;;11.87;5.97;;;;;;;;;;766571;182;915064;-66
2023/10/12 01:57:35;;;;;;;9.70;5.23;;;;;;;;;;762401;182;919430;-65
2023/10/12 01:59:54;;;;;;;14.13;6.70;;;;;;;;;;780066;180;817655;-66
2023/10/12 02:02:21;;;;;;;8.37;5.40;;;;;;;;;;768155;181;918627;-66
2023/10/12 02:04:47;;;;;;;12.43;5.77;;;;;;;;;;776350;177;911896;-68
2023/10/12 02:07:12;;;;;;;15.17;7.50;;;;;;;;;;776428;180;913131;-68
2023/10/12 02:09:38;;;;;;;11.87;6.47;;;;;;;;;;764420;181;907626;-68
2023/10/12 02:12:12;;;;;;;8.97;5.90;;;;;;;;;;768236;182;921410;-67
2023/10/12 02:14:40;;;;;;;12.27;5.60;;;;;;;;;;768121;181;920123;-66
2023/10/12 02:17:05;;;;;;;8.97;5.90;;;;;;;;;;770512;178;921881;-65
2023/10/12 02:19:39;;;;;;;14.17;5.90;;;;;;;;;;774283;177;918600;-69
2023/10/12 02:22:01;;;;;;;9.70;5.03;;;;;;;;;;764265;180;919282;-68
2023/10/12 02:24:23;;;;;;;14.23;5.80;;;;;;;;;;769071;181;918414;-67
2023/10/12 02:26:52;;;;;;;8.93;5.23;;;;;;;;;;763335;183;900833;-68
2023/10/12 02:29:18;;;;;;;10.90;6.20;;;;;;;;;;750902;183;920000;-68
2023/10/12 02:31:55;;;;;;;12.53;7.30;;;;;;;;;;772921;179;918568;-66
2023/10/12 02:34:16;;;;;;;9.00;5.50;;;;;;;;;;768988;182;918265;-68
2023/10/12 02:36:39;;;;;;;12.73;5.17;;;;;;;;;;771916;181;917212;-68
2023/10/12 02:39:15;;;;;;;12.60;5.67;;;;;;;;;;765401;182;919387;-69
2023/10/12 02:41:48;;;;;;;10.87;5.63;;;;;;;;;;755841;185;919109;-68
2023/10/12 02:44:11;;;;;;;9.83;5.90;;;;;;;;;;757529;182;919390;-66
2023/10/12 02:46:40;;;;;;;9.53;5.20;;;;;;;;;;750742;182;919172;-68
2023/10/12 02:49:06;;;;;;;8.23;4.60;;;;;;;;;;766958;178;884463;-65
2023/10/12 02:51:30;;;;;;;8.47;5.50;;;;;;;;;;761287;180;920106;-68
2023/10/12 02:54:02;;;;;;;8.73;4.93;;;;;;;;;;775293;178;919199;-68
2023/10/12 02:56:24;;;;;;;11.30;5.83;;;;;;;;;;771640;181;918691;-66
2023/10/12 02:58:47;;;;;;;8.50;5.37;;;;;;;;;;768161;181;918858;-66
2023/10/12 03:01:13;;;;;;;10.03;6.30;;;;;;;;;;759402;185;816496;-66
2023/10/12 03:03:39;;;;;;;12.50;6.67;;;;;;;;;;767629;180;919010;-64
2023/10/12 03:06:07;;;;;;;10.70;6.75;;;;;;;;;;768650;180;913033;-65
2023/10/12 03:08:34;;;;;;;11.15;7.00;;;;;;;;;;774381;181;921793;-68
2023/10/12 03:11:11;;;;;;;12.70;6.87;;;;;;;;;;778309;180;907466;-67
2023/10/12 03:13:34;;;;;;;12.82;6.75;;;;;;;;;;767048;178;916058;-66
2023/10/12 03:15:58;;;;;;;11.13;7.03;;;;;;;;;;769035;181;914347;-68
2023/10/12 03:18:26;;;;;;;8.70;6.60;;;;;;;;;;761358;184;892477;-68
2023/10/12 03:20:52;;;;;;;11.03;6.80;;;;;;;;;;741036;189;818660;-69
2023/10/12 03:23:16;;;;;;;14.80;6.83;;;;;;;;;;770724;181;914193;-67
2023/10/12 03:25:46;;;;;;;8.20;6.40;;;;;;;;;;774987;181;908316;-68
2023/10/12 03:28:13;;;;;;;9.80;6.50;;;;;;;;;;772946;178;904896;-69
2023/10/12 03:30:43;;;;;;;9.07;5.77;;;;;;;;;;765907;180;920044;-66
2023/10/12 03:33:09;;;;;;;24.20;7.47;;;;;;;;;;766502;181;923739;-68
2023/10/12 03:35:34;;;;;;;8.73;5.30;;;;;;;;;;770179;181;1021815;-69
2023/10/12 03:38:01;;;;;;;12.07;6.90;;;;;;;;;;771566;180;917224;-71
2023/10/12 03:40:50;;;;;;;11.93;6.13;;;;;;;;;;757150;183;918252;-69
2023/10/12 03:42:54;;;;;;;11.30;5.83;;;;;;;;;;752049;182;909981;-68
2023/10/12 03:50:21;;;;;;;11.00;5.27;;;;;;;;;;769167;181;813876;-69
2023/10/12 03:52:52;;;;;;;12.53;5.60;;;;;;;;;;770981;178;889209;-69
2023/10/12 03:55:26;;;;;;;8.67;5.63;;;;;;;;;;767246;183;1016743;-68
2023/10/12 03:58:00;;;;;;;8.33;5.17;;;;;;;;;;767189;180;919671;-67
2023/10/12 04:02:56;;;;;;;9.63;5.73;;;;;;;;;;756647;183;929018;-65
2023/10/12 04:05:35;;;;;;;14.83;6.93;;;;;;;;;;765819;185;615901;-67
2023/10/12 04:13:08;;;;;;;9.70;5.03;;;;;;;;;;769461;181;621572;-68
2023/10/12 04:18:14;;;;;;;10.43;6.63;;;;;;;;;;769876;178;618783;-68
2023/10/12 04:20:41;;;;;;;12.53;6.90;;;;;;;;;;778053;181;625097;-68
2023/10/12 04:25:46;;;;;;;12.10;5.87;;;;;;;;;;773580;181;630573;-69
2023/10/12 04:28:17;;;;;;;10.30;5.23;;;;;;;;;;772627;180;641179;-69
2023/10/12 04:30:45;;;;;;;10.80;6.50;;;;;;;;;;775129;181;629131;-67
2023/10/12 04:33:17;;;;;;;9.67;6.67;;;;;;;;;;770178;180;639965;-69
2023/10/12 04:35:52;;;;;;;13.63;7.90;;;;;;;;;;748216;184;919160;-68
2023/10/12 04:38:23;;;;;;;9.37;6.00;;;;;;;;;;733134;189;919930;-67
2023/10/12 04:40:37;;;;;;;8.47;6.00;;;;;;;;;;754000;184;919853;-68
2023/10/12 04:43:06;;;;;;;8.73;5.33;;;;;;;;;;761835;186;626121;-67
2023/10/12 04:45:30;;;;;;;8.70;6.00;;;;;;;;;;771152;178;635499;-66
2023/10/12 04:48:08;;;;;;;11.60;6.07;;;;;;;;;;766226;179;923432;-67
2023/10/12 04:55:34;;;;;;;13.73;6.07;;;;;;;;;;755848;182;918710;-68
2023/10/12 04:58:09;;;;;;;8.80;5.97;;;;;;;;;;771915;180;632679;-65
2023/10/12 05:00:24;;;;;;;9.33;5.43;;;;;;;;;;770054;181;801022;-67
2023/10/12 05:02:54;;;;;;;12.23;6.80;;;;;;;;;;769030;182;711606;-66
2023/10/12 05:08:01;;;;;;;10.67;6.70;;;;;;;;;;767102;180;916052;-67
2023/10/12 05:10:31;;;;;;;16.03;7.50;;;;;;;;;;768204;178;911927;-68
2023/10/12 05:13:03;;;;;;;14.23;6.60;;;;;;;;;;774162;178;918001;-66
2023/10/12 05:15:21;;;;;;;15.00;8.57;;;;;;;;;;771708;180;852467;-68
2023/10/12 05:17:47;;;;;;;11.50;7.67;;;;;;;;;;772947;180;920381;-68
2023/10/12 05:20:17;;;;;;;7.80;6.00;;;;;;;;;;777538;178;818456;-68
2023/10/12 05:22:39;;;;;;;11.27;7.57;;;;;;;;;;768852;180;921115;-69
2023/10/12 05:25:05;;;;;;;14.43;7.55;;;;;;;;;;777028;178;916860;-68
2023/10/12 05:27:38;;;;;;;9.60;6.50;;;;;;;;;;767171;180;921193;-66
2023/10/12 05:30:01;;;;;;;13.93;8.03;;;;;;;;;;757748;183;918950;-67
2023/10/12 05:32:56;;;;;;;10.23;7.20;;;;;;;;;;735632;189;941329;-67
2023/10/12 05:35:06;;;;;;;7.50;6.30;;;;;;;;;;766038;181;918821;-66
2023/10/12 05:37:38;;;;;;;12.53;7.37;;;;;;;;;;767834;182;918841;-67
2023/10/12 05:40:10;;;;;;;11.87;8.50;;;;;;;;;;775214;180;809003;-66
2023/10/12 05:42:33;;;;;;;12.07;7.57;;;;;;;;;;774542;178;814324;-69
2023/10/12 05:45:18;;;;;;;14.53;7.40;;;;;;;;;;769786;181;816166;-70
2023/10/12 05:49:54;;;;;;;12.13;6.82;;;;;;;;;;772553;182;927998;-68
2023/10/12 05:52:20;;;;;;;13.57;7.50;;;;;;;;;;768827;181;855758;-66
2023/10/12 05:54:45;;;;;;;10.50;6.67;;;;;;;;;;770868;182;913512;-68
2023/10/12 05:57:20;;;;;;;9.30;6.70;;;;;;;;;;759175;183;870250;-68
2023/10/12 05:59:46;;;;;;;11.45;8.02;;;;;;;;;;754208;186;915600;-66
2023/10/12 06:02:13;;;;;;;14.17;7.97;;;;;;;;;;766555;181;916462;-66
2023/10/12 06:04:38;;;;;;;15.20;7.07;;;;;;;;;;766274;179;918124;-66
2023/10/12 06:07:05;;;;;;;11.50;7.10;;;;;;;;;;772295;179;939113;-69
2023/10/12 06:09:35;;;;;;;12.20;6.70;;;;;;;;;;750186;182;816720;-68
2023/10/12 06:11:56;;;;;;;13.67;7.60;;;;;;;;;;768290;181;824297;-67
2023/10/12 06:14:22;;;;;;;15.90;8.03;;;;;;;;;;755696;183;918740;-67
2023/10/12 06:16:48;;;;;;;9.80;6.30;;;;;;;;;;759396;185;919230;-69
2023/10/12 06:19:34;;;;;;;15.17;8.60;;;;;;;;;;747949;184;899688;-69
2023/10/12 06:21:58;;;;;;;18.40;8.40;;;;;;;;;;754499;182;869579;-68
2023/10/12 06:24:33;;;;;;;10.97;7.37;;;;;;;;;;764110;181;920158;-69
2023/10/12 06:26:48;;;;;;;12.93;8.30;;;;;;;;;;759443;185;914755;-69
2023/10/12 06:29:24;;;;;;;18.83;8.70;;;;;;;;;;740049;185;919515;-69
2023/10/12 06:31:40;;;;;;;17.87;8.03;;;;;;;;;;765831;181;914856;-68
2023/10/12 06:34:10;;;;;;;13.80;9.10;;;;;;;;;;757554;183;883335;-68
2023/10/12 06:36:37;;;;;;;15.07;10.77;;;;;;;;;;750192;183;917130;-69
2023/10/12 06:41:58;;;;;;;16.10;9.40;;;;;;;;;;768180;180;839909;-68
2023/10/12 06:44:13;;;;;;;12.80;10.03;;;;;;;;;;767074;181;917405;-69
2023/10/12 06:46:45;;;;;;;19.30;9.73;;;;;;;;;;771789;180;919493;-67
2023/10/12 06:49:06;;;;;;;16.33;9.60;;;;;;;;;;770885;182;944056;-68
2023/10/12 06:51:30;;;;;;;21.27;9.90;;;;;;;;;;768547;182;918138;-71
2023/10/12 06:54:07;;;;;;;19.93;12.97;;;;;;;;;;773459;182;818843;-70
2023/10/12 06:56:31;;;;;;;15.00;10.50;;;;;;;;;;765681;182;918334;-67
2023/10/12 07:01:28;;;;;;;23.03;11.23;;;;;;;;;;764343;178;916604;-66
2023/10/12 07:03:54;;;;;;;17.40;9.40;;;;;;;;;;776664;179;925646;-67
2023/10/12 07:06:20;;;;;;;13.90;9.50;;;;;;;;;;769342;181;921445;-69
2023/10/12 07:08:47;;;;;;;12.37;9.40;;;;;;;;;;750886;185;913139;-68
2023/10/12 07:11:14;;;;;;;16.70;10.17;;;;;;;;;;770185;181;817792;-66
2023/10/12 07:13:41;;;;;;;23.93;10.67;;;;;;;;;;772538;181;817998;-65
2023/10/12 07:16:06;;;;;;;19.77;9.30;;;;;;;;;;767822;181;915720;-67
2023/10/12 07:18:30;;;;;;;17.10;11.63;;;;;;;;;;767758;182;919272;-70
2023/10/12 07:20:56;;;;;;;20.77;10.57;;;;;;;;;;772354;180;817187;-71
2023/10/12 07:23:34;;;;;;;16.93;11.20;;;;;;;;;;768646;180;876981;-70
2023/10/12 07:25:48;;;;;;;14.50;10.50;;;;;;;;;;769902;182;817578;-70
2023/10/12 07:28:19;;;;;;;15.53;10.13;;;;;;;;;;772576;180;910860;-66
2023/10/12 07:31:02;;;;;;;16.05;9.80;;;;;;;;;;772603;181;723675;-66
2023/10/12 07:33:10;;;;;;;16.53;9.90;;;;;;;;;;748292;184;918934;-66
2023/10/12 07:35:36;;;;;;;15.60;9.47;;;;;;;;;;757009;183;914713;-71
2023/10/12 07:38:12;;;;;;;16.70;9.70;;;;;;;;;;758569;182;836293;-70
2023/10/12 07:40:36;;;;;;;23.45;10.07;;;;;;;;;;739961;187;918910;-66
2023/10/12 07:43:03;;;;;;;18.27;9.57;;;;;;;;;;766516;181;816835;-67
2023/10/12 07:45:27;;;;;;;14.73;10.43;;;;;;;;;;757711;185;918592;-67
2023/10/12 07:47:58;;;;;;;16.47;10.17;;;;;;;;;;757401;183;898501;-67
2023/10/12 07:50:15;;;;;;;12.27;9.30;;;;;;;;;;772055;181;917419;-73
2023/10/12 07:52:46;;;;;;;12.50;9.30;;;;;;;;;;769962;181;891433;-71
2023/10/12 07:55:12;;;;;;;13.80;8.47;;;;;;;;;;763680;182;906959;-72
2023/10/12 07:57:36;;;;;;;15.83;8.77;;;;;;;;;;766865;179;918908;-71
2023/10/12 07:59:59;;;;;;;11.77;7.67;;;;;;;;;;768558;179;916411;-71
2023/10/12 08:04:58;;;;;;;19.03;8.50;;;;;;;;;;761583;181;921202;-70
2023/10/12 08:07:26;;;;;;;13.60;8.17;;;;;;;;;;772497;179;786056;-67
2023/10/12 08:09:51;;;;;;;10.90;7.93;;;;;;;;;;765534;179;921926;-66
2023/10/12 08:14:46;;;;;;;13.50;8.43;;;;;;;;;;767297;181;918954;-67
2023/10/12 08:19:43;;;;;;;16.53;9.10;;;;;;;;;;766055;182;915436;-70
2023/10/12 08:22:41;;;;;;;19.63;9.10;;;;;;;;;;753673;186;921946;-70
2023/10/12 08:24:53;;;;;;;15.60;7.80;;;;;;;;;;770171;181;879754;-67
2023/10/12 08:27:18;;;;;;;16.30;9.53;;;;;;;;;;754691;182;919113;-66
2023/10/12 08:30:11;;;;;;;14.05;8.90;;;;;;;;;;766906;181;912611;-67
2023/10/12 08:32:29;;;;;;;12.93;8.27;;;;;;;;;;768734;181;917697;-70
2023/10/12 08:38:09;;;;;;;15.47;8.27;;;;;;;;;;770058;182;951470;-67
2023/10/12 08:40:08;;;;;;;17.73;7.50;;;;;;;;;;745304;185;895820;-70
2023/10/12 08:42:55;;;;;;;17.73;8.50;;;;;;;;;;751023;183;922712;-70
2023/10/12 08:45:09;;;;;;;13.10;6.60;;;;;;;;;;753744;183;874722;-66
2023/10/12 08:47:44;;;;;;;12.20;6.80;;;;;;;;;;759487;183;942412;-70
2023/10/12 08:52:43;;;;;;;10.30;6.37;;;;;;;;;;755099;185;918299;-67
2023/10/12 08:55:11;;;;;;;11.07;6.97;;;;;;;;;;753397;183;920868;-71
2023/10/12 08:57:52;;;;;;;15.33;6.30;;;;;;;;;;759594;186;918859;-66
2023/10/12 09:02:43;;;;;;;14.80;8.10;;;;;;;;;;771644;181;630385;-71
2023/10/12 09:05:10;;;;;;;13.60;7.00;;;;;;;;;;770840;182;812918;-67
2023/10/12 09:07:45;;;;;;;11.93;6.47;;;;;;;;;;767612;182;881068;-66
2023/10/12 09:10:03;;;;;;;9.80;6.50;;;;;;;;;;775585;182;614759;-72
2023/10/12 09:12:26;;;;;;;9.10;5.93;;;;;;;;;;774998;177;919017;-71
2023/10/12 09:14:55;;;;;;;12.40;5.93;;;;;;;;;;770327;178;883901;-67
2023/10/12 09:17:26;;;;;;;12.83;8.10;;;;;;;;;;751175;183;818177;-68
2023/10/12 09:19:49;;;;;;;14.43;7.57;;;;;;;;;;761874;182;909757;-65
2023/10/12 09:22:27;;;;;;;10.60;6.27;;;;;;;;;;767292;180;915682;-70
2023/10/12 09:24:41;;;;;;;18.50;6.97;;;;;;;;;;765773;180;915565;-64
2023/10/12 09:27:26;;;;;;;9.70;6.18;;;;;;;;;;773696;180;918588;-65
2023/10/12 09:29:57;;;;;;;12.77;7.47;;;;;;;;;;765657;181;920538;-65
2023/10/12 09:32:15;;;;;;;11.27;7.47;;;;;;;;;;753071;185;919319;-66
2023/10/12 09:34:43;;;;;;;13.40;8.63;;;;;;;;;;767535;181;918605;-65
2023/10/12 09:37:09;;;;;;;12.23;6.97;;;;;;;;;;773083;181;914056;-65
2023/10/12 09:39:35;;;;;;;11.93;7.30;;;;;;;;;;770180;181;946629;-66
2023/10/12 09:42:09;;;;;;;9.30;6.40;;;;;;;;;;767192;181;917534;-71
2023/10/12 09:44:26;;;;;;;14.20;7.30;;;;;;;;;;755442;184;867017;-66
2023/10/12 09:46:55;;;;;;;15.07;6.97;;;;;;;;;;775646;178;919238;-66
2023/10/12 09:49:22;;;;;;;10.07;6.53;;;;;;;;;;770184;178;919142;-70
2023/10/12 09:51:48;;;;;;;13.30;6.87;;;;;;;;;;755042;183;947066;-65
2023/10/12 09:54:16;;;;;;;12.90;6.43;;;;;;;;;;747980;187;919008;-66
2023/10/12 09:56:46;;;;;;;13.27;6.60;;;;;;;;;;770046;179;919532;-65
2023/10/12 09:59:14;;;;;;;11.30;5.83;;;;;;;;;;764255;181;918474;-69
2023/10/12 10:04:27;;;;;;;15.07;6.90;;;;;;;;;;764741;181;921799;-71
2023/10/12 10:09:41;;;;;;;12.67;6.50;;;;;;;;;;752524;185;815241;-72
2023/10/12 10:12:07;;;;;;;12.63;7.70;;;;;;;;;;767750;182;917522;-72
2023/10/12 10:14:35;;;;;;;12.13;6.97;;;;;;;;;;762974;181;919615;-71
2023/10/12 10:17:01;;;;;;;14.20;6.77;;;;;;;;;;771465;181;919299;-71
2023/10/12 10:19:29;;;;;;;12.50;6.87;;;;;;;;;;758415;185;919435;-71
2023/10/12 10:24:29;;;;;;;14.90;7.53;;;;;;;;;;768584;179;919622;-71
2023/10/12 10:26:57;;;;;;;10.50;7.62;;;;;;;;;;770809;182;917987;-71
2023/10/12 10:29:29;;;;;;;13.53;6.40;;;;;;;;;;774397;181;917471;-71
2023/10/12 10:31:50;;;;;;;16.03;7.57;;;;;;;;;;749784;186;918444;-68
2023/10/12 10:34:23;;;;;;;9.47;6.67;;;;;;;;;;766974;182;922519;-70
2023/10/12 10:36:44;;;;;;;13.83;6.77;;;;;;;;;;767802;181;884744;-71
2023/10/12 10:39:28;;;;;;;12.40;7.27;;;;;;;;;;761025;182;928977;-67
2023/10/12 10:41:54;;;;;;;13.53;7.20;;;;;;;;;;768057;180;919635;-72
2023/10/12 10:44:22;;;;;;;17.80;7.43;;;;;;;;;;768046;181;927261;-67
2023/10/12 10:46:49;;;;;;;12.20;6.90;;;;;;;;;;767396;180;919199;-71
2023/10/12 10:49:16;;;;;;;15.33;6.90;;;;;;;;;;769901;180;922693;-68
2023/10/12 10:51:48;;;;;;;12.37;6.63;;;;;;;;;;767418;181;917905;-68
2023/10/12 10:54:18;;;;;;;15.83;7.57;;;;;;;;;;771391;177;930676;-68
2023/10/12 10:56:40;;;;;;;17.83;7.70;;;;;;;;;;769870;180;918607;-71
2023/10/12 10:59:07;;;;;;;17.47;8.53;;;;;;;;;;761737;183;920000;-70
2023/10/12 11:01:32;;;;;;;18.83;7.10;;;;;;;;;;768463;180;819376;-71
2023/10/12 11:03:58;;;;;;;13.87;5.80;;;;;;;;;;771499;179;819493;-71
2023/10/12 11:06:27;;;;;;;13.93;7.60;;;;;;;;;;774469;178;919445;-68
2023/10/12 11:09:05;;;;;;;10.10;6.33;;;;;;;;;;775739;178;812663;-70
2023/10/12 11:11:37;;;;;;;13.25;6.55;;;;;;;;;;766574;182;924212;-71
2023/10/12 11:13:55;;;;;;;20.73;7.20;;;;;;;;;;768401;180;918998;-66
2023/10/12 11:16:21;;;;;;;10.77;5.70;;;;;;;;;;758233;185;917155;-68
2023/10/12 11:18:47;;;;;;;11.83;6.47;;;;;;;;;;767519;180;919241;-68
2023/10/12 11:21:13;;;;;;;10.87;7.10;;;;;;;;;;770975;180;919709;-68
2023/10/12 11:23:39;;;;;;;17.20;7.00;;;;;;;;;;757153;186;918787;-68
2023/10/12 11:26:05;;;;;;;14.40;6.73;;;;;;;;;;767613;182;919975;-68
2023/10/12 11:28:33;;;;;;;12.40;7.03;;;;;;;;;;768092;181;919838;-72
2023/10/12 11:31:03;;;;;;;15.23;6.13;;;;;;;;;;764900;181;920770;-68
2023/10/12 11:33:29;;;;;;;13.50;6.80;;;;;;;;;;773589;182;918701;-70
2023/10/12 11:36:00;;;;;;;12.60;7.17;;;;;;;;;;767527;181;914079;-67
2023/10/12 11:38:21;;;;;;;10.90;6.47;;;;;;;;;;750840;183;919195;-70
2023/10/12 11:40:53;;;;;;;13.40;6.30;;;;;;;;;;753885;185;919446;-70
2023/10/12 11:43:19;;;;;;;11.33;5.73;;;;;;;;;;767124;182;812435;-69
2023/10/12 11:45:50;;;;;;;13.53;6.17;;;;;;;;;;754447;182;916835;-66
2023/10/12 11:48:17;;;;;;;9.43;5.73;;;;;;;;;;772073;181;816972;-65
2023/10/12 11:50:45;;;;;;;13.73;5.40;;;;;;;;;;757920;185;918710;-66
2023/10/12 11:53:09;;;;;;;11.30;5.27;;;;;;;;;;768119;180;918340;-67
2023/10/12 11:55:35;;;;;;;10.50;5.20;;;;;;;;;;766051;180;919860;-70
2023/10/12 11:58:07;;;;;;;12.40;6.17;;;;;;;;;;754908;182;918051;-70
2023/10/12 12:00:36;;;;;;;7.77;5.17;;;;;;;;;;756069;186;917115;-69
2023/10/12 12:02:57;;;;;;;13.47;5.23;;;;;;;;;;777992;178;918912;-70
2023/10/12 12:05:25;;;;;;;15.73;6.87;;;;;;;;;;769571;182;816264;-67
2023/10/12 12:07:52;;;;;;;15.63;6.37;;;;;;;;;;769516;181;918716;-66
2023/10/12 12:10:19;;;;;;;13.80;5.70;;;;;;;;;;770884;181;918898;-66
2023/10/12 12:12:44;;;;;;;13.53;5.30;;;;;;;;;;746416;185;925770;-66
2023/10/12 12:15:14;;;;;;;10.17;6.70;;;;;;;;;;766214;180;925459;-65
2023/10/12 12:17:36;;;;;;;16.87;7.10;;;;;;;;;;773082;181;918981;-64
2023/10/12 12:20:05;;;;;;;10.20;6.30;;;;;;;;;;768809;178;919833;-66
2023/10/12 12:22:38;;;;;;;10.47;5.80;;;;;;;;;;768584;178;923183;-67
2023/10/12 12:24:53;;;;;;;11.63;5.73;;;;;;;;;;771239;182;916486;-70
2023/10/12 12:29:54;;;;;;;11.50;5.33;;;;;;;;;;755632;185;920775;-66
2023/10/12 12:32:18;;;;;;;12.40;5.40;;;;;;;;;;755918;183;928345;-68
2023/10/12 12:34:47;;;;;;;9.00;5.03;;;;;;;;;;759339;183;918511;-66
2023/10/12 12:37:08;;;;;;;9.50;5.57;;;;;;;;;;771303;180;843016;-67
2023/10/12 12:39:35;;;;;;;10.57;5.43;;;;;;;;;;767407;181;935868;-70
2023/10/12 12:42:01;;;;;;;10.50;5.87;;;;;;;;;;758504;185;915700;-71
2023/10/12 12:44:27;;;;;;;9.27;6.60;;;;;;;;;;751024;184;814504;-65
2023/10/12 12:46:54;;;;;;;10.40;6.30;;;;;;;;;;769329;182;913450;-66
2023/10/12 12:49:20;;;;;;;13.47;5.97;;;;;;;;;;771164;180;919404;-66
2023/10/12 12:51:45;;;;;;;7.70;4.83;;;;;;;;;;770028;180;917401;-69
2023/10/12 12:54:11;;;;;;;10.27;5.60;;;;;;;;;;764506;181;918819;-70
2023/10/12 12:56:36;;;;;;;9.77;6.07;;;;;;;;;;769476;181;922469;-69
2023/10/12 12:59:04;;;;;;;10.53;6.10;;;;;;;;;;771907;181;817705;-66
2023/10/12 13:01:30;;;;;;;11.20;5.70;;;;;;;;;;748764;184;918662;-65
2023/10/12 13:03:55;;;;;;;11.43;4.90;;;;;;;;;;769222;181;918453;-66
2023/10/12 13:06:21;;;;;;;9.17;6.10;;;;;;;;;;769641;181;819642;-69
2023/10/12 13:08:46;;;;;;;10.20;6.93;;;;;;;;;;766267;181;924242;-66
2023/10/12 13:11:19;;;;;;;15.40;5.77;;;;;;;;;;771258;181;914238;-65
2023/10/12 13:13:47;;;;;;;15.47;6.47;;;;;;;;;;760797;182;916609;-66
2023/10/12 13:16:12;;;;;;;13.80;5.60;;;;;;;;;;774461;180;918547;-69
2023/10/12 13:18:38;;;;;;;9.93;5.37;;;;;;;;;;765372;182;917668;-66
2023/10/12 13:21:06;;;;;;;12.03;6.20;;;;;;;;;;771903;181;816170;-66
2023/10/12 13:23:31;;;;;;;13.93;6.10;;;;;;;;;;757226;185;630779;-68
2023/10/12 13:25:56;;;;;;;14.93;7.37;;;;;;;;;;780537;177;625899;-67
2023/10/12 13:28:22;;;;;;;11.23;5.47;;;;;;;;;;770831;181;814472;-66
2023/10/12 13:30:48;;;;;;;8.70;5.77;;;;;;;;;;776362;180;913496;-67
2023/10/12 13:33:14;;;;;;;10.50;6.10;;;;;;;;;;755525;182;644145;-69
2023/10/12 13:35:42;;;;;;;10.23;6.35;;;;;;;;;;754377;183;780697;-65
2023/10/12 13:38:09;;;;;;;12.30;5.77;;;;;;;;;;769724;180;898979;-65
2023/10/12 13:40:33;;;;;;;10.77;6.40;;;;;;;;;;764154;185;619428;-65
2023/10/12 13:43:07;;;;;;;14.73;6.70;;;;;;;;;;746876;187;620124;-66
2023/10/12 13:45:28;;;;;;;9.00;6.27;;;;;;;;;;765804;181;812818;-65
2023/10/12 13:47:53;;;;;;;12.93;5.57;;;;;;;;;;774099;180;914886;-66
2023/10/12 13:50:19;;;;;;;15.73;7.67;;;;;;;;;;771354;181;916181;-65
2023/10/12 13:52:45;;;;;;;11.80;7.63;;;;;;;;;;769596;181;898955;-67
2023/10/12 13:55:12;;;;;;;9.80;5.13;;;;;;;;;;773066;182;714271;-68
2023/10/12 13:57:37;;;;;;;13.27;6.80;;;;;;;;;;769782;181;915275;-68
2023/10/12 14:00:04;;;;;;;11.30;7.90;;;;;;;;;;769138;180;872399;-67
2023/10/12 14:02:29;;;;;;;15.10;6.40;;;;;;;;;;757660;183;827034;-65
2023/10/12 14:04:57;;;;;;;12.80;6.67;;;;;;;;;;763553;182;642755;-66
2023/10/12 14:07:22;;;;;;;11.43;6.43;;;;;;;;;;758687;183;628359;-68
2023/10/12 14:09:48;;;;;;;10.90;5.32;;;;;;;;;;769310;180;907024;-69
2023/10/12 14:12:13;;;;;;;14.43;6.53;;;;;;;;;;771812;181;920009;-69
2023/10/12 14:14:39;;;;;;;15.37;6.47;;;;;;;;;;768004;181;911873;-66
2023/10/12 14:17:07;;;;;;;12.13;6.40;;;;;;;;;;765304;181;920246;-69
2023/10/12 14:19:30;;;;;;;12.80;6.33;;;;;;;;;;773087;182;716725;-69
2023/10/12 14:21:59;;;;;;;16.57;6.43;;;;;;;;;;772661;177;692846;-67
2023/10/12 14:24:23;;;;;;;14.97;7.10;;;;;;;;;;755070;182;818383;-67
2023/10/12 14:26:48;;;;;;;20.33;6.37;;;;;;;;;;769360;180;718831;-69
2023/10/12 14:29:14;;;;;;;13.17;6.20;;;;;;;;;;771085;182;914860;-70
2023/10/12 14:31:43;;;;;;;12.27;6.97;;;;;;;;;;749532;185;818855;-68
2023/10/12 14:34:08;;;;;;;22.53;7.83;;;;;;;;;;750077;185;763448;-69
2023/10/12 14:36:31;;;;;;;17.93;7.63;;;;;;;;;;762861;185;628430;-69
2023/10/12 14:38:57;;;;;;;16.73;7.90;;;;;;;;;;753250;182;912534;-69
2023/10/12 14:41:24;;;;;;;21.77;8.80;;;;;;;;;;753140;182;819049;-69
2023/10/12 14:43:49;;;;;;;12.43;7.43;;;;;;;;;;778143;180;906593;-68
2023/10/12 14:46:18;;;;;;;14.90;6.63;;;;;;;;;;768281;181;918761;-67
2023/10/12 14:48:43;;;;;;;15.77;7.37;;;;;;;;;;764220;180;1021474;-69
2023/10/12 14:51:12;;;;;;;19.77;8.48;;;;;;;;;;771833;178;909947;-68
2023/10/12 14:53:35;;;;;;;20.13;9.20;;;;;;;;;;763385;182;916597;-67
2023/10/12 14:56:03;;;;;;;22.87;7.17;;;;;;;;;;753728;182;920838;-68
2023/10/12 14:58:26;;;;;;;12.37;7.43;;;;;;;;;;763226;181;917853;-69
2023/10/12 15:00:53;;;;;;;11.17;6.87;;;;;;;;;;771848;181;811392;-68
2023/10/12 15:03:21;;;;;;;11.10;7.43;;;;;;;;;;769512;181;862940;-69
2023/10/12 15:05:43;;;;;;;12.03;7.07;;;;;;;;;;771224;181;797716;-69
2023/10/12 15:08:09;;;;;;;17.33;7.47;;;;;;;;;;775940;178;892561;-69
2023/10/12 15:10:36;;;;;;;12.90;7.73;;;;;;;;;;767418;181;922510;-68
2023/10/12 15:13:01;;;;;;;14.67;8.60;;;;;;;;;;764896;182;921594;-68
2023/10/12 15:15:27;;;;;;;14.20;8.80;;;;;;;;;;774040;181;916069;-69
2023/10/12 15:17:53;;;;;;;17.77;10.83;;;;;;;;;;768915;181;921354;-69